Pagrindinis puslapis
METAR-TAF:

METAR-TAF

Oro uostai :

Kupangas, Indonezija

platuma: 10-10-17S, ilguma: 123-40-16E, Aukštis: 102 m

METAR: trūkstamas

Laikas: 09:12 (02:12 UTC)

Prognozė

Ataskaita buvo paskelbta 3 valandos ir 12 minutes, ne 23:00 UTC
Prognozė galioja nuo 14 metu 00 UTC su 14 metu 24 UTC
Vėjas 5 kt iš Rytų
Matomumas 10 km arba daugiau
Mažai debesys ne aukštis 1700 ft
Tapsmas
nuo 14 metu 04 UTC su 14 metu 06 UTC
Vėjas 10 kt iš Vakarų/Pietvakarių
Su prošvaistėmis ne aukštis 1600 ft

TAF: WATT 132300Z 1400/1424 10005KT 9999 FEW017 BECMG 1404/1406 25010KT BKN016

Orai ataskaitas ir orų prognozės (METAR, TAF).

turimą stotys yra geltonos ir raudonos taškus žemėlapyje.

Perkelti pele per norėdami pamatyti stoties vardą.

Tada spustelėkite, norėdami matyti oro stebėjimo ir prognozės.

Norėdami pakeisti žemėlapį: spustelėkite ant žalios mygtukų su juodo kryžiaus žemyn,; žalią mygtuką su brūkšneliu, jei norite nutolinti; arba žalių rodyklių gretimoms žemėlapius.


METAR-TAF: